Terminal Aerodrome Forecast
Issued by NWS Charleston, WV

Current Version | Previous Version | Graphics & Text | Print | Product List | Glossary On
Versions: 1 2 3 4 5 6 7 8 9 10 11 12 13 14 15 16 17 18 19 20 21 22 23 24 25 26
000
FTUS41 KRLX 191700 RRA
TAFCRW
TAF
KCRW 191744Z 1918/2018 07002KT P6SM SCT035
     FM191900 11004KT P6SM BKN040
     FM192300 00000KT P6SM SCT040
     FM200700 00000KT 6SM BR SCT080
     FM200900 00000KT 3SM BR FEW001 SCT080
     FM201000 00000KT 2SM BR BKN001
     FM201300 00000KT 5SM BR SCT002 SCT080
     FM201500 18005KT P6SM SCT040=

USA.gov is the U.S. government's official web portal to all federal, state and local government web resources and services.